Time;durP1;ratioP1;P1;durP2;ratioP2;P2;SDS_P1;SDS_P2;PMS_P1;PMS_P2;Temp;Humidity;BMP_temperature;BMP_pressure;BME280_temperature;BME280_humidity;BME280_pressure;Samples;Min_cycle;Max_cycle;Signal;HPM_P1;HPM_P2
2022/08/03 00:02:22;;;;;;;3.20;1.77;;;26.20;71.30;;;;;;5077923;28;20170;-88
2022/08/03 00:04:48;;;;;;;2.57;1.80;;;26.20;71.40;;;;;;5076543;28;20198;-88
2022/08/03 00:07:14;;;;;;;2.40;1.73;;;26.20;71.60;;;;;;5077342;28;20179;-88
2022/08/03 00:09:40;;;;;;;2.20;2.00;;;26.20;71.70;;;;;;5077169;28;20217;-88
2022/08/03 00:12:06;;;;;;;2.03;1.63;;;26.20;71.90;;;;;;5076352;28;20171;-88
2022/08/03 00:14:32;;;;;;;3.50;1.80;;;26.10;71.90;;;;;;5076577;28;20175;-88
2022/08/03 00:16:58;;;;;;;3.37;1.80;;;26.10;72.10;;;;;;5077699;28;20449;-88
2022/08/03 00:19:24;;;;;;;2.10;1.80;;;26.10;72.40;;;;;;5076279;28;20174;-89
2022/08/03 00:21:49;;;;;;;1.90;1.80;;;26.10;72.50;;;;;;5079631;28;20485;-89
2022/08/03 00:24:15;;;;;;;2.70;2.00;;;26.10;73.00;;;;;;5081144;28;20195;-88
2022/08/03 00:26:41;;;;;;;3.70;1.83;;;26.10;73.50;;;;;;5080534;28;20171;-88
2022/08/03 00:29:07;;;;;;;3.23;2.03;;;26.10;73.40;;;;;;5081015;28;20468;-88
2022/08/03 00:31:32;;;;;;;5.03;1.80;;;26.00;73.50;;;;;;5081062;28;20224;-89
2022/08/03 00:33:58;;;;;;;2.97;1.87;;;26.00;73.70;;;;;;5081033;28;20259;-89
2022/08/03 00:36:24;;;;;;;2.60;1.77;;;26.00;73.60;;;;;;5305944;22;20302;-90
2022/08/03 00:38:49;;;;;;;2.97;1.90;;;26.00;73.60;;;;;;5097765;28;20621;-90
2022/08/03 00:41:15;;;;;;;2.43;1.80;;;26.00;73.60;;;;;;5099289;28;20223;-89
2022/08/03 00:43:41;;;;;;;2.83;1.70;;;26.00;73.70;;;;;;5098658;28;20171;-89
2022/08/03 00:46:06;;;;;;;2.47;1.90;;;26.00;73.80;;;;;;5099048;28;20202;-89
2022/08/03 00:48:32;;;;;;;2.17;1.97;;;26.00;74.00;;;;;;5117604;28;20175;-90
2022/08/03 00:50:58;;;;;;;2.10;1.83;;;26.00;74.00;;;;;;5100943;28;20613;-89
2022/08/03 00:53:25;;;;;;;2.37;1.70;;;25.90;73.90;;;;;;5099647;28;20206;-89
2022/08/03 00:55:51;;;;;;;2.57;1.80;;;25.90;74.00;;;;;;5099901;28;20169;-90
2022/08/03 00:58:17;;;;;;;1.70;1.60;;;25.90;74.10;;;;;;5099832;28;20170;-90
2022/08/03 01:00:42;;;;;;;3.07;1.73;;;25.90;74.30;;;;;;5100437;28;20181;-89
2022/08/03 01:03:10;;;;;;;2.27;1.87;;;25.90;74.90;;;;;;5099687;28;20178;-89
2022/08/03 01:06:03;;;;;;;2.37;1.70;;;25.90;75.30;;;;;;5099970;28;20162;-90
2022/08/03 01:08:53;;;;;;;2.43;1.60;;;25.90;75.40;;;;;;5099951;28;20178;-90
2022/08/03 01:11:34;;;;;;;1.97;1.73;;;25.90;75.30;;;;;;5098581;28;20222;-90
2022/08/03 01:14:10;;;;;;;1.70;1.60;;;25.90;75.30;;;;;;5099612;28;20234;-89
2022/08/03 01:16:41;;;;;;;2.47;1.90;;;25.90;75.20;;;;;;5100020;28;20174;-90
2022/08/03 01:19:12;;;;;;;2.30;2.00;;;25.90;75.30;;;;;;5098999;28;20166;-90
2022/08/03 01:21:53;;;;;;;3.40;2.17;;;25.80;75.50;;;;;;5098804;28;20190;-90
2022/08/03 01:24:54;;;;;;;2.00;1.80;;;25.80;75.60;;;;;;5116157;28;20171;-89
2022/08/03 01:27:28;;;;;;;2.27;1.67;;;25.80;75.80;;;;;;5099571;28;20331;-89
2022/08/03 01:30:08;;;;;;;1.93;1.70;;;25.80;76.10;;;;;;5098652;28;20197;-90
2022/08/03 01:32:41;;;;;;;5.67;1.80;;;25.80;76.20;;;;;;5099620;28;20170;-90
2022/08/03 01:35:15;;;;;;;2.13;1.80;;;25.80;76.30;;;;;;5098802;28;20174;-90
2022/08/03 01:37:54;;;;;;;2.23;1.90;;;25.80;77.40;;;;;;5100099;28;20276;-89
2022/08/03 01:40:23;;;;;;;2.87;1.80;;;25.70;77.30;;;;;;5100274;28;20542;-90
2022/08/03 01:42:50;;;;;;;2.33;1.70;;;25.70;78.10;;;;;;5118153;28;20442;-88
2022/08/03 01:45:17;;;;;;;2.10;1.90;;;25.70;77.80;;;;;;5100446;28;20178;-88
2022/08/03 01:47:48;;;;;;;3.00;1.90;;;25.70;78.20;;;;;;5100088;28;20182;-88
2022/08/03 01:50:17;;;;;;;2.20;1.70;;;25.70;78.20;;;;;;5100190;28;20479;-88
2022/08/03 01:52:46;;;;;;;1.70;1.60;;;25.70;78.50;;;;;;5100323;28;20177;-89
2022/08/03 01:55:12;;;;;;;3.17;1.70;;;25.70;78.30;;;;;;5098465;28;20210;-88
2022/08/03 01:57:39;;;;;;;2.63;1.80;;;25.70;78.70;;;;;;5098471;28;20341;-88
2022/08/03 02:00:08;;;;;;;2.27;1.70;;;25.70;79.00;;;;;;5098904;28;20229;-88
2022/08/03 02:02:36;;;;;;;2.03;1.83;;;25.60;79.10;;;;;;5099183;28;20301;-88
2022/08/03 02:05:05;;;;;;;2.47;1.90;;;25.60;79.30;;;;;;5117549;28;20181;-88
2022/08/03 02:07:33;;;;;;;2.07;1.70;;;25.60;79.40;;;;;;5099702;28;20247;-88
2022/08/03 02:10:00;;;;;;;2.13;1.93;;;25.60;80.10;;;;;;5099713;28;20201;-88
2022/08/03 02:12:28;;;;;;;3.40;2.00;;;25.60;80.30;;;;;;5099361;28;20199;-88
2022/08/03 02:14:55;;;;;;;3.03;2.00;;;25.60;80.40;;;;;;5116470;28;20467;-88
2022/08/03 02:17:22;;;;;;;1.70;1.60;;;25.50;80.60;;;;;;5098554;28;20177;-88
2022/08/03 02:19:49;;;;;;;2.50;1.70;;;25.50;80.70;;;;;;5099507;28;20200;-88
2022/08/03 02:22:16;;;;;;;2.37;1.80;;;25.50;80.90;;;;;;5099332;28;20280;-88
2022/08/03 02:24:42;;;;;;;2.43;1.93;;;25.50;80.80;;;;;;5099282;28;20217;-88
2022/08/03 02:27:18;;;;;;;2.07;1.83;;;25.50;81.00;;;;;;5098684;28;20377;-89
2022/08/03 02:29:48;;;;;;;2.93;2.10;;;25.50;80.90;;;;;;5099185;28;20194;-88
2022/08/03 02:32:19;;;;;;;2.60;1.90;;;25.50;81.20;;;;;;5116540;28;20169;-88
2022/08/03 02:34:48;;;;;;;3.37;1.80;;;25.50;81.00;;;;;;5116852;28;20206;-88
2022/08/03 02:37:16;;;;;;;1.87;1.60;;;25.50;81.30;;;;;;5098305;28;20194;-88
2022/08/03 02:39:43;;;;;;;2.40;1.90;;;25.50;81.40;;;;;;5098669;28;20197;-88
2022/08/03 02:42:11;;;;;;;3.43;1.90;;;25.50;81.50;;;;;;5098850;28;20242;-88
2022/08/03 02:44:39;;;;;;;2.00;1.70;;;25.50;81.70;;;;;;5098851;28;20174;-89
2022/08/03 02:47:09;;;;;;;2.30;1.90;;;25.40;81.90;;;;;;5098280;28;20178;-88
2022/08/03 02:49:37;;;;;;;3.30;1.90;;;25.40;82.40;;;;;;5098911;28;20178;-88
2022/08/03 02:52:08;;;;;;;3.80;1.90;;;25.40;82.40;;;;;;5098195;28;20167;-88
2022/08/03 02:54:35;;;;;;;2.70;1.90;;;25.40;82.50;;;;;;5116074;28;20173;-88
2022/08/03 02:57:02;;;;;;;2.03;1.80;;;25.40;82.50;;;;;;5098229;28;20218;-88
2022/08/03 02:59:30;;;;;;;1.73;1.63;;;25.40;82.60;;;;;;5097816;28;20551;-88
2022/08/03 03:01:58;;;;;;;2.40;1.80;;;25.40;82.70;;;;;;5098751;28;20178;-88
2022/08/03 03:04:26;;;;;;;2.00;1.70;;;25.40;82.80;;;;;;5098473;28;20170;-88
2022/08/03 03:06:52;;;;;;;2.13;1.80;;;25.30;82.90;;;;;;5098222;28;20170;-88
2022/08/03 03:09:19;;;;;;;3.07;1.80;;;25.40;83.10;;;;;;5098386;28;20213;-88
2022/08/03 03:11:47;;;;;;;3.10;1.90;;;25.40;83.30;;;;;;5097394;28;20202;-88
2022/08/03 03:14:14;;;;;;;2.00;1.80;;;25.30;83.10;;;;;;5097491;28;20166;-88
2022/08/03 03:16:41;;;;;;;2.20;2.00;;;25.30;83.40;;;;;;5097548;28;20166;-88
2022/08/03 03:19:12;;;;;;;3.10;2.00;;;25.30;83.30;;;;;;5097180;28;20218;-88
2022/08/03 03:21:38;;;;;;;2.70;2.10;;;25.30;83.30;;;;;;5097639;28;20269;-88
2022/08/03 03:24:05;;;;;;;3.07;1.80;;;25.30;83.50;;;;;;5096857;28;20197;-88
2022/08/03 03:26:32;;;;;;;1.80;1.70;;;25.30;83.60;;;;;;5097122;28;20170;-88
2022/08/03 03:28:57;;;;;;;3.53;1.83;;;25.30;83.80;;;;;;5115134;28;20166;-88
2022/08/03 03:31:23;;;;;;;1.83;1.73;;;25.20;84.10;;;;;;5097197;28;20598;-88
2022/08/03 03:33:49;;;;;;;2.53;1.90;;;25.30;83.70;;;;;;5096996;28;20391;-88
2022/08/03 03:36:15;;;;;;;2.37;2.00;;;25.20;84.10;;;;;;5097157;28;20252;-88
2022/08/03 03:38:40;;;;;;;2.50;2.07;;;25.20;83.90;;;;;;5097566;28;20171;-88
2022/08/03 03:41:06;;;;;;;1.60;1.50;;;25.20;84.10;;;;;;5097518;28;20314;-88
2022/08/03 03:43:33;;;;;;;2.53;1.77;;;25.20;84.00;;;;;;5096566;28;20277;-88
2022/08/03 03:45:59;;;;;;;2.10;1.90;;;25.20;84.10;;;;;;5096620;28;20277;-88
2022/08/03 03:48:25;;;;;;;2.13;1.90;;;25.20;84.20;;;;;;5113813;28;20200;-88
2022/08/03 03:50:52;;;;;;;2.20;2.00;;;25.20;84.40;;;;;;5096799;28;20220;-88
2022/08/03 03:53:18;;;;;;;2.30;1.80;;;25.20;84.40;;;;;;5096201;28;20170;-88
2022/08/03 03:55:43;;;;;;;2.23;1.80;;;25.20;84.90;;;;;;5114789;28;20551;-88
2022/08/03 03:58:09;;;;;;;2.93;2.17;;;25.20;85.00;;;;;;5100821;28;20170;-88
2022/08/03 04:00:35;;;;;;;2.23;1.80;;;25.20;85.20;;;;;;5101064;28;20242;-88
2022/08/03 04:03:00;;;;;;;2.20;2.00;;;25.20;85.00;;;;;;5099976;28;20175;-88
2022/08/03 04:11:00;;;;;;;4.93;2.10;;;25.10;85.10;;;;;;5116986;28;20486;-88
2022/08/03 04:14:04;;;;;;;2.10;1.90;;;25.20;85.10;;;;;;5100375;28;20175;-88
2022/08/03 04:16:34;;;;;;;2.50;1.87;;;25.20;85.30;;;;;;5100980;28;20170;-88
2022/08/03 04:19:14;;;;;;;4.03;2.23;;;25.20;85.40;;;;;;5100266;28;20162;-88
2022/08/03 04:21:43;;;;;;;2.63;1.80;;;25.10;85.60;;;;;;5101279;28;20173;-88
2022/08/03 04:24:10;;;;;;;1.93;1.73;;;25.10;85.50;;;;;;5099722;28;20479;-88
2022/08/03 04:26:39;;;;;;;2.20;2.00;;;25.10;85.60;;;;;;5100064;28;20174;-88
2022/08/03 04:29:06;;;;;;;2.30;1.70;;;25.20;85.50;;;;;;5099783;28;20533;-88
2022/08/03 04:31:32;;;;;;;2.30;2.10;;;25.20;85.50;;;;;;5099392;28;20209;-88
2022/08/03 04:33:59;;;;;;;2.00;1.87;;;25.20;85.40;;;;;;5098366;28;20170;-88
2022/08/03 04:36:32;;;;;;;2.27;1.80;;;25.20;85.50;;;;;;5097505;28;20242;-88
2022/08/03 04:39:15;;;;;;;2.23;2.03;;;25.20;85.70;;;;;;5098616;28;20231;-88
2022/08/03 04:41:43;;;;;;;4.17;1.90;;;25.20;85.40;;;;;;5098237;28;20238;-88
2022/08/03 04:44:09;;;;;;;2.97;2.00;;;25.20;85.40;;;;;;5097949;28;20175;-88
2022/08/03 04:46:38;;;;;;;2.73;1.90;;;25.20;85.70;;;;;;5117414;28;20202;-88
2022/08/03 04:49:05;;;;;;;2.30;2.00;;;25.20;86.00;;;;;;5099371;28;20176;-88
2022/08/03 04:51:33;;;;;;;3.57;2.00;;;25.20;85.30;;;;;;5099588;28;20583;-88
2022/08/03 04:53:59;;;;;;;2.20;2.00;;;25.20;85.50;;;;;;5098725;28;20235;-88
2022/08/03 04:56:25;;;;;;;2.10;1.87;;;25.20;85.40;;;;;;5098656;28;20396;-88
2022/08/03 04:58:52;;;;;;;2.67;1.80;;;25.30;85.20;;;;;;5098400;28;20171;-88
2022/08/03 05:01:19;;;;;;;3.93;2.20;;;25.30;85.10;;;;;;5097169;28;20178;-88
2022/08/03 05:03:45;;;;;;;3.00;2.00;;;25.30;85.20;;;;;;5097977;28;20257;-88
2022/08/03 05:06:11;;;;;;;2.93;2.00;;;25.30;85.00;;;;;;5097802;28;20266;-88
2022/08/03 05:08:38;;;;;;;2.47;2.03;;;25.40;84.90;;;;;;5098904;28;20302;-88
2022/08/03 05:11:03;;;;;;;3.03;2.23;;;25.40;85.00;;;;;;5098321;28;20213;-88
2022/08/03 05:13:29;;;;;;;3.77;2.00;;;25.40;84.30;;;;;;5097134;28;20170;-88
2022/08/03 05:15:55;;;;;;;2.40;2.20;;;25.50;84.20;;;;;;5115583;28;20166;-88
2022/08/03 05:18:21;;;;;;;3.03;2.27;;;25.50;84.10;;;;;;5098243;28;20455;-88
2022/08/03 05:20:47;;;;;;;2.70;1.97;;;25.50;85.30;;;;;;5098051;28;20174;-88
2022/08/03 05:23:12;;;;;;;4.17;2.10;;;25.60;86.10;;;;;;5115098;28;20197;-88
2022/08/03 05:25:38;;;;;;;2.33;1.93;;;25.60;83.00;;;;;;5098263;28;20470;-88
2022/08/03 05:28:04;;;;;;;2.73;1.90;;;25.70;82.10;;;;;;5098418;28;20174;-88
2022/08/03 05:30:30;;;;;;;4.83;1.80;;;25.80;82.10;;;;;;5098033;28;20461;-88
2022/08/03 05:32:55;;;;;;;2.67;2.00;;;25.80;81.00;;;;;;5097692;28;20425;-88
2022/08/03 05:35:24;;;;;;;2.13;1.93;;;25.90;80.10;;;;;;5097115;28;20433;-88
2022/08/03 05:37:50;;;;;;;1.93;1.83;;;26.00;79.30;;;;;;5096257;28;20234;-88
2022/08/03 05:40:15;;;;;;;2.17;1.70;;;26.10;78.50;;;;;;5114354;28;20437;-88
2022/08/03 05:42:41;;;;;;;2.20;1.70;;;26.10;78.60;;;;;;5096859;28;20245;-90
2022/08/03 05:45:13;;;;;;;1.80;1.70;;;26.20;77.20;;;;;;5097477;28;20177;-90
2022/08/03 05:47:40;;;;;;;2.20;2.00;;;26.30;76.60;;;;;;5096721;28;20178;-90
2022/08/03 05:50:07;;;;;;;2.07;1.90;;;26.40;75.70;;;;;;5114452;28;20467;-89
2022/08/03 05:52:32;;;;;;;1.83;1.70;;;26.50;75.00;;;;;;5096325;28;20410;-90
2022/08/03 05:54:58;;;;;;;3.20;2.10;;;26.60;73.70;;;;;;5096619;28;20231;-90
2022/08/03 05:57:25;;;;;;;2.10;1.90;;;26.70;72.70;;;;;;5096183;28;20185;-90
2022/08/03 05:59:50;;;;;;;3.00;2.10;;;26.80;72.00;;;;;;5096378;28;20528;-90
2022/08/03 06:02:16;;;;;;;1.97;1.83;;;26.90;71.20;;;;;;5094955;28;20174;-90
2022/08/03 06:04:42;;;;;;;2.53;2.10;;;26.90;70.60;;;;;;5092311;28;20166;-90
2022/08/03 06:07:08;;;;;;;2.50;2.00;;;27.00;70.40;;;;;;5089659;28;20166;-90
2022/08/03 06:09:33;;;;;;;2.33;1.80;;;27.10;69.60;;;;;;5094167;28;20167;-90
2022/08/03 06:11:59;;;;;;;2.10;1.90;;;27.20;68.70;;;;;;5094280;28;20520;-89
2022/08/03 06:14:25;;;;;;;2.30;2.10;;;27.20;68.30;;;;;;5094256;28;20163;-89
2022/08/03 06:16:51;;;;;;;2.30;2.10;;;27.40;67.70;;;;;;5094674;28;20442;-89
2022/08/03 06:19:16;;;;;;;3.10;1.80;;;27.60;66.80;;;;;;5093427;28;20166;-90
2022/08/03 06:21:42;;;;;;;3.33;2.17;;;27.70;66.00;;;;;;5094731;28;20421;-89
2022/08/03 06:24:08;;;;;;;2.40;1.70;;;27.80;65.20;;;;;;5093711;28;20174;-90
2022/08/03 06:26:34;;;;;;;3.33;2.07;;;28.00;65.50;;;;;;5094760;28;20305;-90
2022/08/03 06:29:00;;;;;;;2.57;2.00;;;28.00;64.40;;;;;;5093364;28;20170;-90
2022/08/03 06:31:28;;;;;;;4.23;2.10;;;28.10;64.30;;;;;;5093605;28;20206;-90
2022/08/03 06:33:54;;;;;;;2.43;2.13;;;28.20;63.70;;;;;;5093505;28;20519;-90
2022/08/03 06:36:20;;;;;;;2.60;1.97;;;28.30;63.80;;;;;;5093510;28;20205;-90
2022/08/03 06:38:45;;;;;;;2.70;1.97;;;28.30;63.20;;;;;;5094803;28;20228;-90
2022/08/03 06:41:11;;;;;;;3.03;2.20;;;28.40;63.00;;;;;;5094792;28;20178;-90
2022/08/03 06:43:37;;;;;;;2.90;2.17;;;28.50;62.20;;;;;;5095241;28;20174;-90
2022/08/03 06:46:04;;;;;;;2.50;1.90;;;28.70;61.20;;;;;;5094491;28;20174;-90
2022/08/03 06:48:30;;;;;;;2.47;1.93;;;28.90;60.30;;;;;;5093783;28;20624;-90
2022/08/03 06:50:56;;;;;;;2.90;2.60;;;29.10;59.70;;;;;;5094270;28;20209;-89
2022/08/03 06:53:22;;;;;;;2.53;2.07;;;29.20;59.30;;;;;;5111467;28;20227;-89
2022/08/03 06:55:47;;;;;;;2.42;2.22;;;29.70;58.90;;;;;;5093204;28;20166;-89
2022/08/03 06:58:13;;;;;;;3.17;2.30;;;30.20;58.10;;;;;;5093044;28;20302;-89
2022/08/03 07:00:39;;;;;;;4.20;2.13;;;30.70;56.90;;;;;;5092099;28;20174;-89
2022/08/03 07:03:05;;;;;;;2.40;2.10;;;31.30;56.00;;;;;;5094274;28;20552;-89
2022/08/03 07:05:33;;;;;;;2.40;2.03;;;31.70;54.90;;;;;;5092827;28;20181;-89
2022/08/03 07:08:00;;;;;;;2.50;2.30;;;32.10;54.20;;;;;;5091985;28;20361;-89
2022/08/03 07:10:27;;;;;;;2.47;2.25;;;32.50;53.60;;;;;;5092940;28;20274;-89
2022/08/03 07:12:53;;;;;;;3.88;2.20;;;32.90;53.00;;;;;;5091394;28;20265;-89
2022/08/03 07:15:19;;;;;;;3.25;2.08;;;33.10;52.40;;;;;;5109769;28;20167;-89
2022/08/03 07:17:45;;;;;;;2.40;2.20;;;33.40;52.00;;;;;;5092467;28;20256;-89
2022/08/03 07:20:12;;;;;;;2.40;2.20;;;33.70;51.50;;;;;;5092938;28;20178;-89
2022/08/03 07:22:38;;;;;;;2.47;2.08;;;34.10;50.90;;;;;;5095089;28;20409;-90
2022/08/03 07:25:04;;;;;;;3.40;2.20;;;34.60;50.40;;;;;;5092786;28;20178;-90
2022/08/03 07:27:31;;;;;;;2.97;2.25;;;34.80;49.90;;;;;;5093571;28;20170;-90
2022/08/03 07:29:58;;;;;;;3.00;2.50;;;35.10;49.50;;;;;;5093309;28;20190;-90
2022/08/03 07:32:24;;;;;;;2.70;2.40;;;35.30;49.20;;;;;;5110713;28;20171;-90
2022/08/03 07:34:50;;;;;;;2.40;2.13;;;35.60;49.00;;;;;;5092961;28;20239;-91
2022/08/03 07:37:16;;;;;;;3.03;2.40;;;36.00;48.40;;;;;;5111216;28;20190;-91
2022/08/03 07:39:41;;;;;;;2.67;2.38;;;36.00;48.30;;;;;;5092886;28;20177;-90
2022/08/03 07:42:07;;;;;;;3.15;2.53;;;36.30;47.80;;;;;;5091748;28;20166;-90
2022/08/03 07:44:33;;;;;;;2.50;2.30;;;36.50;47.90;;;;;;5091541;28;20178;-90
2022/08/03 07:46:59;;;;;;;2.95;2.33;;;36.60;47.20;;;;;;5092480;28;20209;-90
2022/08/03 07:49:24;;;;;;;2.80;2.10;;;36.50;47.10;;;;;;5108965;28;20527;-90
2022/08/03 07:52:46;;;;;;;2.90;2.30;;;36.50;47.00;;;;;;5093293;28;20202;-90
2022/08/03 07:54:36;;;;;;;3.22;2.10;;;36.90;46.70;;;;;;5111365;28;20466;-90
2022/08/03 07:57:02;;;;;;;2.47;2.28;;;37.20;46.60;;;;;;5093866;28;20171;-89
2022/08/03 07:59:28;;;;;;;3.50;2.40;;;37.40;46.30;;;;;;5093520;28;20187;-91
2022/08/03 08:01:55;;;;;;;3.78;2.35;;;37.40;46.10;;;;;;5093000;28;20178;-90
2022/08/03 08:04:21;;;;;;;2.65;2.15;;;37.70;45.90;;;;;;5092952;28;20512;-90
2022/08/03 08:06:47;;;;;;;3.35;2.60;;;38.00;45.60;;;;;;5092718;28;20182;-90
2022/08/03 08:09:13;;;;;;;4.80;2.55;;;38.20;45.20;;;;;;5109782;28;20433;-90
2022/08/03 08:11:39;;;;;;;2.30;1.98;;;38.20;45.00;;;;;;5092550;28;20237;-90
2022/08/03 08:14:06;;;;;;;2.40;2.20;;;37.90;45.00;;;;;;5092114;28;20267;-90
2022/08/03 08:16:32;;;;;;;2.75;2.30;;;37.40;45.50;;;;;;5091849;28;20600;-91
2022/08/03 08:18:58;;;;;;;3.85;2.50;;;37.70;45.30;;;;;;5091381;28;20251;-91
2022/08/03 08:21:23;;;;;;;2.58;2.30;;;38.00;45.10;;;;;;5109144;28;20182;-91
2022/08/03 08:23:49;;;;;;;4.07;2.28;;;37.90;45.00;;;;;;5092413;28;20178;-91
2022/08/03 08:26:15;;;;;;;4.20;2.50;;;38.10;45.20;;;;;;5092133;28;20455;-91
2022/08/03 08:28:41;;;;;;;3.15;2.40;;;38.30;44.80;;;;;;5091699;28;20174;-91
2022/08/03 08:31:07;;;;;;;2.70;2.50;;;38.10;44.70;;;;;;5091910;28;20216;-89
2022/08/03 08:33:34;;;;;;;3.08;2.17;;;37.10;45.10;;;;;;5109767;28;20668;-89
2022/08/03 08:36:00;;;;;;;2.92;2.50;;;36.80;46.00;;;;;;5091494;28;20170;-89
2022/08/03 08:38:26;;;;;;;3.78;2.80;;;37.50;45.40;;;;;;5091106;28;20186;-89
2022/08/03 08:40:54;;;;;;;2.90;2.63;;;38.00;44.80;;;;;;5108366;28;20166;-90
2022/08/03 08:43:20;;;;;;;3.10;2.63;;;38.60;44.50;;;;;;5095311;28;20178;-90
2022/08/03 08:45:49;;;;;;;3.63;2.20;;;38.70;43.90;;;;;;5113132;28;20460;-89
2022/08/03 08:48:21;;;;;;;2.90;2.70;;;38.60;44.10;;;;;;5094245;28;20170;-89
2022/08/03 08:50:51;;;;;;;2.78;2.58;;;38.60;44.20;;;;;;5095157;28;20197;-89
2022/08/03 08:53:18;;;;;;;3.92;2.60;;;38.70;43.90;;;;;;5095061;28;20170;-89
2022/08/03 08:55:47;;;;;;;3.00;2.70;;;38.70;44.00;;;;;;5111254;28;20440;-89
2022/08/03 08:58:15;;;;;;;3.20;2.63;;;39.00;43.90;;;;;;5095795;28;20178;-89
2022/08/03 09:00:44;;;;;;;3.10;2.70;;;39.20;43.70;;;;;;5094544;28;20170;-91
2022/08/03 09:03:11;;;;;;;3.80;2.60;;;39.30;43.60;;;;;;5095506;28;20170;-91
2022/08/03 09:05:37;;;;;;;2.90;2.70;;;39.30;43.50;;;;;;5093021;28;20197;-91
2022/08/03 09:08:05;;;;;;;2.80;2.60;;;39.30;43.50;;;;;;5092838;28;20185;-91
2022/08/03 09:10:31;;;;;;;2.90;2.60;;;39.30;43.60;;;;;;5094054;28;20210;-91
2022/08/03 09:12:56;;;;;;;4.95;2.80;;;39.40;43.60;;;;;;5093700;28;20178;-90
2022/08/03 09:15:31;;;;;;;2.83;2.60;;;39.40;43.50;;;;;;5094055;28;20433;-90
2022/08/03 09:17:59;;;;;;;2.72;2.53;;;39.50;43.50;;;;;;5092723;28;20276;-91
2022/08/03 09:20:28;;;;;;;3.08;2.78;;;39.60;43.40;;;;;;5094422;28;20240;-91
2022/08/03 09:23:09;;;;;;;4.63;2.80;;;39.60;43.50;;;;;;5093304;28;20654;-91
2022/08/03 09:25:40;;;;;;;4.90;2.67;;;39.70;43.40;;;;;;5111540;28;20336;-89
2022/08/03 09:28:16;;;;;;;3.60;2.90;;;39.70;43.30;;;;;;5093829;28;20170;-89
2022/08/03 09:30:56;;;;;;;2.80;2.60;;;39.70;43.30;;;;;;5093391;28;20599;-88
2022/08/03 09:33:23;;;;;;;3.85;2.95;;;39.70;43.40;;;;;;5093179;28;20169;-88
2022/08/03 09:35:49;;;;;;;3.38;3.00;;;39.70;43.40;;;;;;5111174;28;20238;-87
2022/08/03 09:38:17;;;;;;;3.83;2.95;;;39.60;43.50;;;;;;5093386;28;20182;-86
2022/08/03 09:40:44;;;;;;;3.03;2.60;;;39.50;43.50;;;;;;5094337;28;20227;-86
2022/08/03 09:43:11;;;;;;;3.50;2.67;;;39.30;43.60;;;;;;5093148;28;20180;-86
2022/08/03 09:45:38;;;;;;;4.57;2.63;;;39.00;43.80;;;;;;5093125;28;20175;-87
2022/08/03 09:48:28;;;;;;;3.08;2.70;;;38.50;44.20;;;;;;5091434;28;20178;-86
2022/08/03 09:51:02;;;;;;;2.92;2.50;;;37.90;44.70;;;;;;5091964;28;20410;-86
2022/08/03 09:53:28;;;;;;;3.83;2.47;;;37.30;45.00;;;;;;5109983;28;20205;-86
2022/08/03 09:55:59;;;;;;;5.10;2.58;;;36.70;45.50;;;;;;5092665;28;20390;-86
2022/08/03 09:58:27;;;;;;;5.88;2.50;;;36.20;46.00;;;;;;5091090;28;20200;-86
2022/08/03 10:00:57;;;;;;;2.53;2.33;;;35.80;46.40;;;;;;5092285;28;20231;-86
2022/08/03 10:03:24;;;;;;;2.40;2.20;;;35.50;46.90;;;;;;5110342;28;20174;-86
2022/08/03 10:05:51;;;;;;;3.20;2.33;;;35.20;47.10;;;;;;5092030;28;20270;-87
2022/08/03 10:08:18;;;;;;;3.38;2.30;;;35.10;47.20;;;;;;5093267;28;20182;-86
2022/08/03 10:10:47;;;;;;;3.33;2.55;;;34.90;47.40;;;;;;5092447;28;20237;-87
2022/08/03 10:13:15;;;;;;;3.13;2.42;;;34.80;47.60;;;;;;5109349;28;20273;-86
2022/08/03 10:15:42;;;;;;;5.63;2.38;;;34.60;47.80;;;;;;5091207;28;20166;-87
2022/08/03 10:18:08;;;;;;;2.72;2.13;;;34.50;47.90;;;;;;5091480;28;20574;-87
2022/08/03 10:20:37;;;;;;;2.67;2.38;;;34.40;48.10;;;;;;5093226;28;20182;-87
2022/08/03 10:23:04;;;;;;;5.22;2.78;;;34.30;48.30;;;;;;5092525;28;20197;-88
2022/08/03 10:25:34;;;;;;;5.35;2.42;;;34.20;48.40;;;;;;5091601;28;20273;-88
2022/08/03 10:28:03;;;;;;;3.67;2.42;;;34.10;48.50;;;;;;5090988;28;20243;-88
2022/08/03 10:30:31;;;;;;;5.68;2.17;;;34.00;48.50;;;;;;5091594;28;20259;-88
2022/08/03 10:33:15;;;;;;;2.65;2.25;;;34.00;48.60;;;;;;5091548;28;20544;-88
2022/08/03 10:35:43;;;;;;;4.35;2.15;;;34.00;48.70;;;;;;5110660;28;20168;-88
2022/08/03 10:38:17;;;;;;;2.47;2.25;;;33.90;48.70;;;;;;5093291;28;20198;-89
2022/08/03 10:40:43;;;;;;;2.55;2.28;;;33.90;48.90;;;;;;5093362;28;20176;-88
2022/08/03 10:43:17;;;;;;;3.47;2.30;;;33.80;49.00;;;;;;5092296;28;20174;-88
2022/08/03 10:45:45;;;;;;;2.70;2.00;;;33.70;49.10;;;;;;5092986;28;20170;-91
2022/08/03 10:48:12;;;;;;;3.13;2.08;;;33.70;49.20;;;;;;5093341;28;20174;-91
2022/08/03 10:50:39;;;;;;;3.42;2.28;;;33.60;49.20;;;;;;5091578;28;20377;-90
2022/08/03 10:53:06;;;;;;;4.78;2.33;;;33.60;49.30;;;;;;5091456;28;20443;-90
2022/08/03 10:58:41;;;;;;;2.25;2.00;;;33.50;49.40;;;;;;5109169;28;20172;-90
2022/08/03 11:01:09;;;;;;;3.45;2.42;;;33.50;49.50;;;;;;5091672;28;20178;-91
2022/08/03 11:03:54;;;;;;;3.85;2.50;;;33.50;49.60;;;;;;5089917;28;20170;-90
2022/08/03 11:06:24;;;;;;;4.60;2.25;;;33.50;49.70;;;;;;5089337;28;20197;-90
2022/08/03 11:09:10;;;;;;;3.40;2.47;;;33.50;49.80;;;;;;5091074;28;20235;-90
2022/08/03 11:11:41;;;;;;;3.35;2.17;;;33.40;49.80;;;;;;5090963;28;20210;-90
2022/08/03 11:14:19;;;;;;;5.20;2.60;;;33.40;49.90;;;;;;5091076;28;20178;-90
2022/08/03 11:16:45;;;;;;;2.22;2.03;;;33.30;50.00;;;;;;5091170;28;20173;-89
2022/08/03 11:19:18;;;;;;;4.60;2.38;;;33.30;50.00;;;;;;5090555;28;20335;-89
2022/08/03 11:21:47;;;;;;;4.65;2.22;;;33.30;50.10;;;;;;5108532;28;20162;-90
2022/08/03 11:24:35;;;;;;;4.10;2.30;;;33.30;50.20;;;;;;5090567;28;20185;-89
2022/08/03 11:27:21;;;;;;;3.33;2.30;;;33.20;50.30;;;;;;5090653;28;20264;-89
2022/08/03 11:29:59;;;;;;;6.85;2.22;;;33.30;50.40;;;;;;5090788;28;20169;-90
2022/08/03 11:32:36;;;;;;;4.00;2.40;;;33.30;50.30;;;;;;5092373;28;20239;-90
2022/08/03 11:35:13;;;;;;;3.83;2.28;;;33.30;50.10;;;;;;5110085;28;20169;-90
2022/08/03 11:37:56;;;;;;;3.83;2.90;;;33.30;50.20;;;;;;5091966;28;20774;-87
2022/08/03 11:40:41;;;;;;;3.65;2.20;;;33.30;50.30;;;;;;5092453;28;20166;-87
2022/08/03 11:43:30;;;;;;;3.22;2.30;;;33.30;50.30;;;;;;5092503;28;20712;-92
2022/08/03 11:46:03;;;;;;;3.72;2.53;;;33.30;50.30;;;;;;5091313;28;20185;-92
2022/08/03 11:48:41;;;;;;;2.30;2.10;;;33.30;50.40;;;;;;5110935;28;20313;-93
2022/08/03 11:51:22;;;;;;;4.05;2.30;;;33.30;50.40;;;;;;5091990;28;20217;-91
2022/08/03 11:54:06;;;;;;;5.72;2.40;;;33.40;50.50;;;;;;5091391;28;20166;-92
2022/08/03 11:56:47;;;;;;;2.72;1.95;;;33.30;50.60;;;;;;5092801;28;20162;-95
2022/08/03 11:59:13;;;;;;;2.35;2.15;;;33.30;50.70;;;;;;5093502;28;20521;-93
2022/08/03 12:01:39;;;;;;;4.55;2.25;;;33.30;50.80;;;;;;5093631;28;20189;-92
2022/08/03 12:04:05;;;;;;;4.45;2.13;;;33.20;50.80;;;;;;5091805;28;20350;-92
2022/08/03 12:06:53;;;;;;;5.80;2.10;;;33.20;50.90;;;;;;5090896;28;20190;-87
2022/08/03 12:09:20;;;;;;;2.65;2.20;;;33.20;51.00;;;;;;5089688;28;20170;-86
2022/08/03 12:11:50;;;;;;;3.38;2.30;;;33.20;51.10;;;;;;5090062;28;20205;-87
2022/08/03 12:14:17;;;;;;;4.55;2.10;;;33.20;51.10;;;;;;5091178;28;20166;-87
2022/08/03 12:16:47;;;;;;;3.30;2.17;;;33.20;51.20;;;;;;5091704;28;20213;-87
2022/08/03 12:19:13;;;;;;;4.57;2.22;;;33.10;51.30;;;;;;5094624;28;20687;-86
2022/08/03 12:21:47;;;;;;;2.30;2.10;;;33.10;51.40;;;;;;5093457;28;20199;-86
2022/08/03 12:24:13;;;;;;;4.55;2.22;;;33.10;51.40;;;;;;5094954;28;20573;-93
2022/08/03 12:26:50;;;;;;;3.67;1.98;;;33.10;51.40;;;;;;5095744;28;20171;-89
2022/08/03 12:29:24;;;;;;;3.88;2.30;;;33.00;51.50;;;;;;5094880;28;20288;-89
2022/08/03 12:31:50;;;;;;;4.07;2.20;;;33.00;51.60;;;;;;5093767;28;20520;-89
2022/08/03 12:34:16;;;;;;;2.65;1.77;;;33.00;51.70;;;;;;5094715;28;20425;-88
2022/08/03 12:36:55;;;;;;;5.82;1.90;;;33.00;51.70;;;;;;5095827;28;20186;-89
2022/08/03 12:39:28;;;;;;;3.40;1.95;;;33.00;51.70;;;;;;5093988;28;20170;-89
2022/08/03 12:41:55;;;;;;;3.70;1.90;;;33.00;51.80;;;;;;5093709;28;20174;-89
2022/08/03 12:44:32;;;;;;;5.13;1.95;;;33.00;51.80;;;;;;5094727;28;20163;-89
2022/08/03 12:46:58;;;;;;;4.65;2.00;;;33.00;51.70;;;;;;5094942;28;20265;-89
2022/08/03 12:49:25;;;;;;;4.68;2.17;;;33.00;51.30;;;;;;5093382;28;20170;-89
2022/08/03 12:51:51;;;;;;;6.90;2.10;;;33.00;51.60;;;;;;5093092;28;20607;-89
2022/08/03 12:54:19;;;;;;;7.30;1.85;;;33.00;51.40;;;;;;5094453;28;20177;-88
2022/08/03 12:57:03;;;;;;;4.03;2.03;;;33.00;51.00;;;;;;5093475;28;20173;-88
2022/08/03 12:59:31;;;;;;;5.03;1.85;;;33.00;51.20;;;;;;5094218;28;20523;-88
2022/08/03 13:01:57;;;;;;;3.03;1.83;;;33.00;51.20;;;;;;5112126;28;20188;-88
2022/08/03 13:04:30;;;;;;;3.90;2.00;;;32.90;51.20;;;;;;5094356;28;20234;-89
2022/08/03 13:07:00;;;;;;;5.35;2.00;;;32.90;50.70;;;;;;5094114;28;20170;-89